Time,TemperatureF,DewpointF,PressureIn,WindDirection,WindDirectionDegrees,WindSpeedMPH,WindSpeedGustMPH,Humidity,HourlyPrecipIn,Conditions,Clouds,dailyrainin,SoftwareType,DateUTC
2013-10-15 17:17:00,71.2,51.6,29.94,SE,135,3.2,-999.0,50,-99.99,,,0.00,Acu-Link.com,2013-10-15 21:17:00,
2013-10-15 19:09:00,64.4,49.8,29.94,ESE,112,0.0,-999.0,59,-99.99,,,0.00,Acu-Link.com,2013-10-15 23:09:00,
2013-10-15 19:24:00,63.3,49.2,29.94,ESE,112,0.0,-999.0,60,-99.99,,,0.00,Acu-Link.com,2013-10-15 23:24:00,
2013-10-15 19:39:00,62.6,50.2,29.93,NW,315,0.0,-999.0,64,-99.99,,,0.00,Acu-Link.com,2013-10-15 23:39:00,
2013-10-15 19:54:00,61.9,50.4,29.93,NW,315,0.0,-999.0,66,-99.99,,,0.00,Acu-Link.com,2013-10-15 23:54:00,
2013-10-15 20:09:00,61.3,50.6,29.93,NW,315,0.0,-999.0,68,-99.99,,,0.00,Acu-Link.com,2013-10-16 00:09:00,
2013-10-15 20:24:00,60.4,50.6,29.94,NW,315,0.0,-999.0,70,-99.99,,,0.00,Acu-Link.com,2013-10-16 00:24:00,
2013-10-15 20:39:00,59.7,49.9,29.94,NW,315,0.0,-999.0,70,-99.99,,,0.00,Acu-Link.com,2013-10-16 00:39:00,
2013-10-15 20:55:00,59.2,49.0,29.95,NW,315,0.0,-999.0,69,-99.99,,,0.00,Acu-Link.com,2013-10-16 00:55:00,
2013-10-15 21:10:00,58.6,49.6,29.95,NW,315,0.0,-999.0,72,-99.99,,,0.00,Acu-Link.com,2013-10-16 01:10:00,
2013-10-15 21:25:00,58.3,50.0,29.95,NW,315,0.0,-999.0,74,-99.99,,,0.00,Acu-Link.com,2013-10-16 01:25:00,
2013-10-15 21:40:00,57.9,49.7,29.95,NW,315,0.0,-999.0,74,-99.99,,,0.00,Acu-Link.com,2013-10-16 01:40:00,
2013-10-15 21:55:00,57.4,48.8,29.94,NW,315,0.0,-999.0,73,-99.99,,,0.00,Acu-Link.com,2013-10-16 01:55:00,
2013-10-15 22:10:00,56.8,49.3,29.94,NW,315,0.0,-999.0,76,-99.99,,,0.00,Acu-Link.com,2013-10-16 02:10:00,
2013-10-15 22:25:00,56.8,48.2,29.93,NW,315,0.0,-999.0,73,-99.99,,,0.00,Acu-Link.com,2013-10-16 02:25:00,
2013-10-15 22:40:00,56.7,48.1,29.93,NW,315,0.0,-999.0,73,-99.99,,,0.00,Acu-Link.com,2013-10-16 02:40:00,
2013-10-15 22:55:00,56.5,48.3,29.93,NW,315,0.0,-999.0,74,-99.99,,,0.00,Acu-Link.com,2013-10-16 02:55:00,
2013-10-15 23:11:00,56.3,48.8,29.93,WNW,292,0.0,-999.0,76,-99.99,,,0.00,Acu-Link.com,2013-10-16 03:11:00,
2013-10-15 23:26:00,56.3,49.5,29.92,WNW,292,0.0,-999.0,78,-99.99,,,0.00,Acu-Link.com,2013-10-16 03:26:00,
2013-10-15 23:41:00,56.3,49.5,29.93,SSE,157,0.0,-999.0,78,-99.99,,,0.00,Acu-Link.com,2013-10-16 03:41:00,
2013-10-15 23:56:00,55.9,49.5,29.93,NE,45,0.0,-999.0,79,-99.99,,,0.00,Acu-Link.com,2013-10-16 03:56:00,